sensor_id;sensor_type;location;lat;lon;timestamp;P1;durP1;ratioP1;P2;durP2;ratioP2
22531;SDS011;11432;46.924;7.114;2022-08-07T00:00:30;7.22;;;4.38;;
22531;SDS011;11432;46.924;7.114;2022-08-07T00:02:55;6.43;;;4.38;;
22531;SDS011;11432;46.924;7.114;2022-08-07T00:05:21;6.15;;;3.92;;
22531;SDS011;11432;46.924;7.114;2022-08-07T00:07:47;8.02;;;4.43;;
22531;SDS011;11432;46.924;7.114;2022-08-07T00:10:13;6.72;;;4.40;;
22531;SDS011;11432;46.924;7.114;2022-08-07T00:12:38;6.07;;;4.45;;
22531;SDS011;11432;46.924;7.114;2022-08-07T00:15:04;6.10;;;4.50;;
22531;SDS011;11432;46.924;7.114;2022-08-07T00:17:31;7.97;;;4.55;;
22531;SDS011;11432;46.924;7.114;2022-08-07T00:19:56;7.55;;;4.70;;
22531;SDS011;11432;46.924;7.114;2022-08-07T00:22:22;7.20;;;4.28;;
22531;SDS011;11432;46.924;7.114;2022-08-07T00:24:48;6.82;;;4.43;;
22531;SDS011;11432;46.924;7.114;2022-08-07T00:27:13;6.55;;;4.57;;
22531;SDS011;11432;46.924;7.114;2022-08-07T00:29:39;6.55;;;4.88;;
22531;SDS011;11432;46.924;7.114;2022-08-07T00:32:05;6.15;;;4.35;;
22531;SDS011;11432;46.924;7.114;2022-08-07T00:34:30;7.43;;;4.32;;
22531;SDS011;11432;46.924;7.114;2022-08-07T00:36:56;6.22;;;4.30;;
22531;SDS011;11432;46.924;7.114;2022-08-07T00:39:22;8.10;;;4.38;;
22531;SDS011;11432;46.924;7.114;2022-08-07T00:41:51;5.68;;;4.32;;
22531;SDS011;11432;46.924;7.114;2022-08-07T00:44:22;7.40;;;4.65;;
22531;SDS011;11432;46.924;7.114;2022-08-07T00:46:48;6.90;;;5.00;;
22531;SDS011;11432;46.924;7.114;2022-08-07T00:49:14;6.80;;;4.70;;
22531;SDS011;11432;46.924;7.114;2022-08-07T00:51:40;6.82;;;3.83;;
22531;SDS011;11432;46.924;7.114;2022-08-07T00:54:06;5.95;;;4.22;;
22531;SDS011;11432;46.924;7.114;2022-08-07T00:56:32;6.60;;;4.47;;
22531;SDS011;11432;46.924;7.114;2022-08-07T00:58:59;6.30;;;4.00;;
22531;SDS011;11432;46.924;7.114;2022-08-07T01:01:25;6.35;;;4.15;;
22531;SDS011;11432;46.924;7.114;2022-08-07T01:03:50;5.47;;;4.13;;
22531;SDS011;11432;46.924;7.114;2022-08-07T01:06:17;7.65;;;4.13;;
22531;SDS011;11432;46.924;7.114;2022-08-07T01:08:43;6.57;;;4.53;;
22531;SDS011;11432;46.924;7.114;2022-08-07T01:11:11;6.40;;;4.40;;
22531;SDS011;11432;46.924;7.114;2022-08-07T01:13:38;6.68;;;4.35;;
22531;SDS011;11432;46.924;7.114;2022-08-07T01:16:04;5.07;;;3.95;;
22531;SDS011;11432;46.924;7.114;2022-08-07T01:18:31;5.28;;;4.03;;
22531;SDS011;11432;46.924;7.114;2022-08-07T01:21:04;5.88;;;4.55;;
22531;SDS011;11432;46.924;7.114;2022-08-07T01:23:32;7.25;;;4.78;;
22531;SDS011;11432;46.924;7.114;2022-08-07T01:25:58;7.32;;;4.53;;
22531;SDS011;11432;46.924;7.114;2022-08-07T01:28:25;4.68;;;3.92;;
22531;SDS011;11432;46.924;7.114;2022-08-07T01:30:51;6.50;;;4.30;;
22531;SDS011;11432;46.924;7.114;2022-08-07T01:33:19;6.30;;;4.95;;
22531;SDS011;11432;46.924;7.114;2022-08-07T01:35:45;6.25;;;4.25;;
22531;SDS011;11432;46.924;7.114;2022-08-07T01:38:11;8.23;;;4.90;;
22531;SDS011;11432;46.924;7.114;2022-08-07T01:40:38;7.05;;;5.00;;
22531;SDS011;11432;46.924;7.114;2022-08-07T01:43:04;7.38;;;5.63;;
22531;SDS011;11432;46.924;7.114;2022-08-07T01:45:30;5.47;;;4.55;;
22531;SDS011;11432;46.924;7.114;2022-08-07T01:47:57;5.25;;;4.60;;
22531;SDS011;11432;46.924;7.114;2022-08-07T01:50:23;9.27;;;5.50;;
22531;SDS011;11432;46.924;7.114;2022-08-07T01:52:51;6.43;;;4.97;;
22531;SDS011;11432;46.924;7.114;2022-08-07T01:55:21;6.47;;;4.18;;
22531;SDS011;11432;46.924;7.114;2022-08-07T01:57:51;6.68;;;4.93;;
22531;SDS011;11432;46.924;7.114;2022-08-07T02:00:19;6.53;;;4.53;;
22531;SDS011;11432;46.924;7.114;2022-08-07T02:03:08;6.03;;;4.70;;
22531;SDS011;11432;46.924;7.114;2022-08-07T02:05:38;6.88;;;4.82;;
22531;SDS011;11432;46.924;7.114;2022-08-07T02:08:09;7.95;;;5.20;;
22531;SDS011;11432;46.924;7.114;2022-08-07T02:10:47;7.10;;;5.25;;
22531;SDS011;11432;46.924;7.114;2022-08-07T02:13:17;6.25;;;5.28;;
22531;SDS011;11432;46.924;7.114;2022-08-07T02:15:47;8.02;;;5.10;;
22531;SDS011;11432;46.924;7.114;2022-08-07T02:18:14;8.90;;;5.05;;
22531;SDS011;11432;46.924;7.114;2022-08-07T02:20:42;5.90;;;5.00;;
22531;SDS011;11432;46.924;7.114;2022-08-07T02:23:11;8.25;;;4.97;;
22531;SDS011;11432;46.924;7.114;2022-08-07T02:25:39;9.43;;;5.18;;
22531;SDS011;11432;46.924;7.114;2022-08-07T02:28:06;6.15;;;4.78;;
22531;SDS011;11432;46.924;7.114;2022-08-07T02:30:35;6.75;;;5.28;;
22531;SDS011;11432;46.924;7.114;2022-08-07T02:33:03;5.95;;;4.70;;
22531;SDS011;11432;46.924;7.114;2022-08-07T02:35:31;8.10;;;5.60;;
22531;SDS011;11432;46.924;7.114;2022-08-07T02:37:58;9.30;;;5.10;;
22531;SDS011;11432;46.924;7.114;2022-08-07T02:40:26;7.13;;;5.10;;
22531;SDS011;11432;46.924;7.114;2022-08-07T02:42:54;7.00;;;4.90;;
22531;SDS011;11432;46.924;7.114;2022-08-07T02:45:21;6.03;;;4.90;;
22531;SDS011;11432;46.924;7.114;2022-08-07T02:47:51;6.55;;;5.03;;
22531;SDS011;11432;46.924;7.114;2022-08-07T02:50:17;7.82;;;5.03;;
22531;SDS011;11432;46.924;7.114;2022-08-07T02:52:44;8.00;;;5.50;;
22531;SDS011;11432;46.924;7.114;2022-08-07T02:55:17;6.20;;;4.65;;
22531;SDS011;11432;46.924;7.114;2022-08-07T02:57:45;8.07;;;5.20;;
22531;SDS011;11432;46.924;7.114;2022-08-07T03:00:12;6.97;;;5.05;;
22531;SDS011;11432;46.924;7.114;2022-08-07T03:02:39;8.00;;;4.88;;
22531;SDS011;11432;46.924;7.114;2022-08-07T03:05:08;6.82;;;4.97;;
22531;SDS011;11432;46.924;7.114;2022-08-07T03:07:35;8.70;;;5.13;;
22531;SDS011;11432;46.924;7.114;2022-08-07T03:10:02;8.98;;;5.15;;
22531;SDS011;11432;46.924;7.114;2022-08-07T03:12:29;8.48;;;5.15;;
22531;SDS011;11432;46.924;7.114;2022-08-07T03:14:56;5.82;;;4.72;;
22531;SDS011;11432;46.924;7.114;2022-08-07T03:17:23;5.97;;;4.85;;
22531;SDS011;11432;46.924;7.114;2022-08-07T03:19:49;10.32;;;5.18;;
22531;SDS011;11432;46.924;7.114;2022-08-07T03:22:15;7.63;;;5.30;;
22531;SDS011;11432;46.924;7.114;2022-08-07T03:24:43;8.77;;;5.20;;
22531;SDS011;11432;46.924;7.114;2022-08-07T03:27:09;7.40;;;5.82;;
22531;SDS011;11432;46.924;7.114;2022-08-07T03:29:45;7.05;;;5.15;;
22531;SDS011;11432;46.924;7.114;2022-08-07T03:32:13;6.72;;;5.10;;
22531;SDS011;11432;46.924;7.114;2022-08-07T03:34:45;8.68;;;5.45;;
22531;SDS011;11432;46.924;7.114;2022-08-07T03:37:12;7.97;;;5.13;;
22531;SDS011;11432;46.924;7.114;2022-08-07T03:39:40;7.03;;;5.32;;
22531;SDS011;11432;46.924;7.114;2022-08-07T03:42:07;6.47;;;5.20;;
22531;SDS011;11432;46.924;7.114;2022-08-07T03:44:33;7.80;;;4.93;;
22531;SDS011;11432;46.924;7.114;2022-08-07T03:47:01;8.05;;;5.40;;
22531;SDS011;11432;46.924;7.114;2022-08-07T03:49:28;6.70;;;5.30;;
22531;SDS011;11432;46.924;7.114;2022-08-07T03:51:55;9.88;;;5.75;;
22531;SDS011;11432;46.924;7.114;2022-08-07T03:54:22;6.25;;;4.78;;
22531;SDS011;11432;46.924;7.114;2022-08-07T03:56:48;5.90;;;4.93;;
22531;SDS011;11432;46.924;7.114;2022-08-07T03:59:16;8.57;;;5.50;;
22531;SDS011;11432;46.924;7.114;2022-08-07T04:01:43;9.43;;;4.93;;
22531;SDS011;11432;46.924;7.114;2022-08-07T04:04:09;7.75;;;5.25;;
22531;SDS011;11432;46.924;7.114;2022-08-07T04:06:36;6.40;;;5.07;;
22531;SDS011;11432;46.924;7.114;2022-08-07T04:09:02;9.25;;;5.47;;
22531;SDS011;11432;46.924;7.114;2022-08-07T04:11:29;6.75;;;5.10;;
22531;SDS011;11432;46.924;7.114;2022-08-07T04:13:56;6.20;;;4.65;;
22531;SDS011;11432;46.924;7.114;2022-08-07T04:16:23;7.72;;;5.45;;
22531;SDS011;11432;46.924;7.114;2022-08-07T04:18:50;7.78;;;5.28;;
22531;SDS011;11432;46.924;7.114;2022-08-07T04:21:15;5.90;;;4.85;;
22531;SDS011;11432;46.924;7.114;2022-08-07T04:23:41;6.18;;;5.05;;
22531;SDS011;11432;46.924;7.114;2022-08-07T04:26:07;6.90;;;5.05;;
22531;SDS011;11432;46.924;7.114;2022-08-07T04:28:33;6.72;;;5.20;;
22531;SDS011;11432;46.924;7.114;2022-08-07T04:30:59;6.75;;;5.13;;
22531;SDS011;11432;46.924;7.114;2022-08-07T04:33:25;8.27;;;5.20;;
22531;SDS011;11432;46.924;7.114;2022-08-07T04:35:51;8.52;;;5.65;;
22531;SDS011;11432;46.924;7.114;2022-08-07T04:38:18;7.80;;;5.47;;
22531;SDS011;11432;46.924;7.114;2022-08-07T04:40:45;8.20;;;5.35;;
22531;SDS011;11432;46.924;7.114;2022-08-07T04:43:11;7.55;;;5.38;;
22531;SDS011;11432;46.924;7.114;2022-08-07T04:45:41;8.00;;;5.70;;
22531;SDS011;11432;46.924;7.114;2022-08-07T04:48:26;8.43;;;5.72;;
22531;SDS011;11432;46.924;7.114;2022-08-07T04:51:03;8.18;;;5.80;;
22531;SDS011;11432;46.924;7.114;2022-08-07T04:56:41;9.07;;;5.68;;
22531;SDS011;11432;46.924;7.114;2022-08-07T04:59:12;7.60;;;5.20;;
22531;SDS011;11432;46.924;7.114;2022-08-07T05:02:07;8.32;;;5.72;;
22531;SDS011;11432;46.924;7.114;2022-08-07T05:05:04;8.82;;;5.93;;
22531;SDS011;11432;46.924;7.114;2022-08-07T05:07:41;7.53;;;5.88;;
22531;SDS011;11432;46.924;7.114;2022-08-07T05:13:34;8.25;;;5.68;;
22531;SDS011;11432;46.924;7.114;2022-08-07T05:16:04;7.88;;;5.70;;
22531;SDS011;11432;46.924;7.114;2022-08-07T05:18:34;6.25;;;5.30;;
22531;SDS011;11432;46.924;7.114;2022-08-07T05:21:05;7.88;;;6.07;;
22531;SDS011;11432;46.924;7.114;2022-08-07T05:24:10;6.60;;;5.43;;
22531;SDS011;11432;46.924;7.114;2022-08-07T05:26:31;8.50;;;5.25;;
22531;SDS011;11432;46.924;7.114;2022-08-07T05:28:59;8.27;;;4.70;;
22531;SDS011;11432;46.924;7.114;2022-08-07T05:31:27;8.93;;;4.88;;
22531;SDS011;11432;46.924;7.114;2022-08-07T05:33:57;10.70;;;5.05;;
22531;SDS011;11432;46.924;7.114;2022-08-07T05:36:23;5.93;;;4.65;;
22531;SDS011;11432;46.924;7.114;2022-08-07T05:38:51;7.13;;;4.78;;
22531;SDS011;11432;46.924;7.114;2022-08-07T05:41:18;8.25;;;4.78;;
22531;SDS011;11432;46.924;7.114;2022-08-07T05:43:46;8.00;;;5.10;;
22531;SDS011;11432;46.924;7.114;2022-08-07T05:46:16;6.82;;;5.07;;
22531;SDS011;11432;46.924;7.114;2022-08-07T05:48:44;6.18;;;4.93;;
22531;SDS011;11432;46.924;7.114;2022-08-07T05:51:10;6.68;;;5.35;;
22531;SDS011;11432;46.924;7.114;2022-08-07T05:53:38;8.38;;;4.97;;
22531;SDS011;11432;46.924;7.114;2022-08-07T05:56:03;7.75;;;5.13;;
22531;SDS011;11432;46.924;7.114;2022-08-07T05:58:30;8.73;;;5.03;;
22531;SDS011;11432;46.924;7.114;2022-08-07T06:03:25;7.45;;;4.95;;
22531;SDS011;11432;46.924;7.114;2022-08-07T06:05:53;7.97;;;5.13;;
22531;SDS011;11432;46.924;7.114;2022-08-07T06:08:19;6.78;;;5.38;;
22531;SDS011;11432;46.924;7.114;2022-08-07T06:10:45;9.80;;;5.68;;
22531;SDS011;11432;46.924;7.114;2022-08-07T06:13:11;9.02;;;5.80;;
22531;SDS011;11432;46.924;7.114;2022-08-07T06:15:38;6.13;;;5.05;;
22531;SDS011;11432;46.924;7.114;2022-08-07T06:18:05;6.35;;;4.93;;
22531;SDS011;11432;46.924;7.114;2022-08-07T06:20:34;7.13;;;4.97;;
22531;SDS011;11432;46.924;7.114;2022-08-07T06:23:01;7.03;;;4.95;;
22531;SDS011;11432;46.924;7.114;2022-08-07T06:25:28;10.75;;;5.82;;
22531;SDS011;11432;46.924;7.114;2022-08-07T06:28:02;6.85;;;4.88;;
22531;SDS011;11432;46.924;7.114;2022-08-07T06:30:28;7.80;;;5.25;;
22531;SDS011;11432;46.924;7.114;2022-08-07T06:32:54;10.40;;;4.72;;
22531;SDS011;11432;46.924;7.114;2022-08-07T06:35:19;6.00;;;4.60;;
22531;SDS011;11432;46.924;7.114;2022-08-07T06:37:45;6.80;;;4.90;;
22531;SDS011;11432;46.924;7.114;2022-08-07T06:40:11;6.65;;;5.38;;
22531;SDS011;11432;46.924;7.114;2022-08-07T06:42:36;6.93;;;4.85;;
22531;SDS011;11432;46.924;7.114;2022-08-07T06:45:08;6.85;;;4.85;;
22531;SDS011;11432;46.924;7.114;2022-08-07T06:47:37;9.70;;;5.00;;
22531;SDS011;11432;46.924;7.114;2022-08-07T06:50:03;6.75;;;4.93;;
22531;SDS011;11432;46.924;7.114;2022-08-07T06:52:29;7.85;;;5.07;;
22531;SDS011;11432;46.924;7.114;2022-08-07T06:57:25;7.30;;;4.95;;
22531;SDS011;11432;46.924;7.114;2022-08-07T06:59:53;6.63;;;4.97;;
22531;SDS011;11432;46.924;7.114;2022-08-07T07:02:20;6.60;;;4.88;;
22531;SDS011;11432;46.924;7.114;2022-08-07T07:04:47;7.65;;;4.85;;
22531;SDS011;11432;46.924;7.114;2022-08-07T07:07:13;7.97;;;5.82;;
22531;SDS011;11432;46.924;7.114;2022-08-07T07:09:46;6.07;;;4.57;;
22531;SDS011;11432;46.924;7.114;2022-08-07T07:12:24;7.78;;;4.35;;
22531;SDS011;11432;46.924;7.114;2022-08-07T07:17:57;8.90;;;5.00;;
22531;SDS011;11432;46.924;7.114;2022-08-07T07:20:38;8.85;;;5.15;;
22531;SDS011;11432;46.924;7.114;2022-08-07T07:23:10;9.65;;;5.43;;
22531;SDS011;11432;46.924;7.114;2022-08-07T07:25:37;7.65;;;5.47;;
22531;SDS011;11432;46.924;7.114;2022-08-07T07:28:06;8.45;;;5.40;;
22531;SDS011;11432;46.924;7.114;2022-08-07T07:30:38;8.93;;;5.22;;
22531;SDS011;11432;46.924;7.114;2022-08-07T07:33:08;7.30;;;5.30;;
22531;SDS011;11432;46.924;7.114;2022-08-07T07:35:36;8.80;;;5.70;;
22531;SDS011;11432;46.924;7.114;2022-08-07T07:38:03;6.88;;;5.20;;
22531;SDS011;11432;46.924;7.114;2022-08-07T07:40:30;12.88;;;5.30;;
22531;SDS011;11432;46.924;7.114;2022-08-07T07:42:58;7.05;;;5.60;;
22531;SDS011;11432;46.924;7.114;2022-08-07T07:45:27;7.30;;;5.07;;
22531;SDS011;11432;46.924;7.114;2022-08-07T07:47:54;8.35;;;5.35;;
22531;SDS011;11432;46.924;7.114;2022-08-07T07:50:22;8.68;;;5.22;;
22531;SDS011;11432;46.924;7.114;2022-08-07T07:52:49;6.20;;;5.25;;
22531;SDS011;11432;46.924;7.114;2022-08-07T07:55:16;6.25;;;5.03;;
22531;SDS011;11432;46.924;7.114;2022-08-07T07:57:43;7.05;;;5.35;;
22531;SDS011;11432;46.924;7.114;2022-08-07T08:00:12;7.30;;;5.47;;
22531;SDS011;11432;46.924;7.114;2022-08-07T08:02:39;10.13;;;5.78;;
22531;SDS011;11432;46.924;7.114;2022-08-07T08:05:08;5.72;;;4.45;;
22531;SDS011;11432;46.924;7.114;2022-08-07T08:07:35;7.65;;;5.82;;
22531;SDS011;11432;46.924;7.114;2022-08-07T08:10:03;7.45;;;5.18;;
22531;SDS011;11432;46.924;7.114;2022-08-07T08:12:32;8.43;;;5.50;;
22531;SDS011;11432;46.924;7.114;2022-08-07T08:14:58;7.30;;;5.13;;
22531;SDS011;11432;46.924;7.114;2022-08-07T08:17:24;8.18;;;4.90;;
22531;SDS011;11432;46.924;7.114;2022-08-07T08:19:52;9.18;;;6.28;;
22531;SDS011;11432;46.924;7.114;2022-08-07T08:22:24;6.18;;;4.97;;
22531;SDS011;11432;46.924;7.114;2022-08-07T08:25:08;6.35;;;5.55;;
22531;SDS011;11432;46.924;7.114;2022-08-07T08:27:55;7.28;;;5.18;;
22531;SDS011;11432;46.924;7.114;2022-08-07T08:30:23;7.10;;;4.53;;
22531;SDS011;11432;46.924;7.114;2022-08-07T08:32:51;6.63;;;5.00;;
22531;SDS011;11432;46.924;7.114;2022-08-07T08:35:20;7.72;;;5.35;;
22531;SDS011;11432;46.924;7.114;2022-08-07T08:37:51;8.05;;;5.30;;
22531;SDS011;11432;46.924;7.114;2022-08-07T08:40:27;8.68;;;5.47;;
22531;SDS011;11432;46.924;7.114;2022-08-07T08:42:58;6.93;;;5.25;;
22531;SDS011;11432;46.924;7.114;2022-08-07T08:45:43;8.20;;;4.78;;
22531;SDS011;11432;46.924;7.114;2022-08-07T08:48:21;7.40;;;5.47;;
22531;SDS011;11432;46.924;7.114;2022-08-07T08:51:04;6.95;;;5.47;;
22531;SDS011;11432;46.924;7.114;2022-08-07T08:59:23;6.78;;;4.78;;
22531;SDS011;11432;46.924;7.114;2022-08-07T09:05:52;8.57;;;5.57;;
22531;SDS011;11432;46.924;7.114;2022-08-07T09:14:00;6.45;;;4.90;;
22531;SDS011;11432;46.924;7.114;2022-08-07T09:16:43;7.53;;;5.50;;
22531;SDS011;11432;46.924;7.114;2022-08-07T09:22:05;7.72;;;5.00;;
22531;SDS011;11432;46.924;7.114;2022-08-07T09:24:38;7.18;;;5.65;;
22531;SDS011;11432;46.924;7.114;2022-08-07T09:30:03;6.20;;;4.60;;
22531;SDS011;11432;46.924;7.114;2022-08-07T09:32:36;8.55;;;4.90;;
22531;SDS011;11432;46.924;7.114;2022-08-07T09:43:57;7.63;;;5.85;;
22531;SDS011;11432;46.924;7.114;2022-08-07T09:49:54;8.07;;;5.60;;
22531;SDS011;11432;46.924;7.114;2022-08-07T10:00:26;5.35;;;4.60;;
22531;SDS011;11432;46.924;7.114;2022-08-07T10:20:02;6.93;;;4.50;;
22531;SDS011;11432;46.924;7.114;2022-08-07T10:33:44;13.27;;;5.85;;
22531;SDS011;11432;46.924;7.114;2022-08-07T10:42:07;6.97;;;4.88;;
22531;SDS011;11432;46.924;7.114;2022-08-07T10:47:58;12.27;;;7.57;;
22531;SDS011;11432;46.924;7.114;2022-08-07T10:50:34;8.95;;;6.75;;
22531;SDS011;11432;46.924;7.114;2022-08-07T10:53:13;8.25;;;6.00;;
22531;SDS011;11432;46.924;7.114;2022-08-07T11:04:34;8.60;;;5.55;;
22531;SDS011;11432;46.924;7.114;2022-08-07T11:07:24;9.87;;;5.57;;
22531;SDS011;11432;46.924;7.114;2022-08-07T11:09:54;8.50;;;5.45;;
22531;SDS011;11432;46.924;7.114;2022-08-07T11:12:26;10.25;;;5.63;;
22531;SDS011;11432;46.924;7.114;2022-08-07T11:15:08;8.27;;;4.82;;
22531;SDS011;11432;46.924;7.114;2022-08-07T11:23:00;8.00;;;4.60;;
22531;SDS011;11432;46.924;7.114;2022-08-07T11:25:51;6.32;;;4.63;;
22531;SDS011;11432;46.924;7.114;2022-08-07T11:28:26;6.28;;;3.97;;
22531;SDS011;11432;46.924;7.114;2022-08-07T11:34:03;5.88;;;4.30;;
22531;SDS011;11432;46.924;7.114;2022-08-07T11:42:22;5.85;;;4.35;;
22531;SDS011;11432;46.924;7.114;2022-08-07T11:53:38;5.40;;;4.07;;
22531;SDS011;11432;46.924;7.114;2022-08-07T12:09:47;4.70;;;3.72;;
22531;SDS011;11432;46.924;7.114;2022-08-07T12:12:18;5.55;;;4.07;;
22531;SDS011;11432;46.924;7.114;2022-08-07T12:14:59;6.03;;;4.05;;
22531;SDS011;11432;46.924;7.114;2022-08-07T12:17:29;4.68;;;3.97;;
22531;SDS011;11432;46.924;7.114;2022-08-07T12:20:32;6.13;;;4.10;;
22531;SDS011;11432;46.924;7.114;2022-08-07T12:25:59;9.43;;;3.97;;
22531;SDS011;11432;46.924;7.114;2022-08-07T12:31:02;5.93;;;4.25;;
22531;SDS011;11432;46.924;7.114;2022-08-07T12:33:32;5.80;;;3.95;;
22531;SDS011;11432;46.924;7.114;2022-08-07T12:35:59;4.72;;;3.60;;
22531;SDS011;11432;46.924;7.114;2022-08-07T12:38:26;5.20;;;4.10;;
22531;SDS011;11432;46.924;7.114;2022-08-07T12:40:53;5.05;;;3.33;;
22531;SDS011;11432;46.924;7.114;2022-08-07T12:43:22;4.05;;;3.00;;
22531;SDS011;11432;46.924;7.114;2022-08-07T12:51:36;5.25;;;3.47;;
22531;SDS011;11432;46.924;7.114;2022-08-07T12:56:44;3.72;;;3.33;;
22531;SDS011;11432;46.924;7.114;2022-08-07T12:59:16;4.72;;;3.20;;
22531;SDS011;11432;46.924;7.114;2022-08-07T13:10:24;4.47;;;3.60;;
22531;SDS011;11432;46.924;7.114;2022-08-07T13:13:00;5.18;;;3.40;;
22531;SDS011;11432;46.924;7.114;2022-08-07T13:20:58;4.97;;;3.65;;
22531;SDS011;11432;46.924;7.114;2022-08-07T13:27:29;4.78;;;3.80;;
22531;SDS011;11432;46.924;7.114;2022-08-07T13:29:58;4.05;;;3.33;;
22531;SDS011;11432;46.924;7.114;2022-08-07T13:35:31;4.18;;;3.25;;
22531;SDS011;11432;46.924;7.114;2022-08-07T13:38:03;5.97;;;3.88;;
22531;SDS011;11432;46.924;7.114;2022-08-07T13:40:51;4.55;;;3.70;;
22531;SDS011;11432;46.924;7.114;2022-08-07T13:43:49;4.43;;;3.15;;
22531;SDS011;11432;46.924;7.114;2022-08-07T13:46:18;4.00;;;2.97;;
22531;SDS011;11432;46.924;7.114;2022-08-07T13:48:47;4.57;;;3.50;;
22531;SDS011;11432;46.924;7.114;2022-08-07T13:51:16;4.10;;;3.22;;
22531;SDS011;11432;46.924;7.114;2022-08-07T13:53:48;3.88;;;3.08;;
22531;SDS011;11432;46.924;7.114;2022-08-07T13:56:17;5.15;;;3.05;;
22531;SDS011;11432;46.924;7.114;2022-08-07T13:58:47;4.13;;;3.20;;
22531;SDS011;11432;46.924;7.114;2022-08-07T14:01:27;4.43;;;2.88;;
22531;SDS011;11432;46.924;7.114;2022-08-07T14:03:57;4.65;;;3.25;;
22531;SDS011;11432;46.924;7.114;2022-08-07T14:06:41;4.03;;;3.13;;
22531;SDS011;11432;46.924;7.114;2022-08-07T14:09:17;3.53;;;2.95;;
22531;SDS011;11432;46.924;7.114;2022-08-07T14:11:53;4.63;;;3.05;;
22531;SDS011;11432;46.924;7.114;2022-08-07T14:14:25;2.95;;;2.53;;
22531;SDS011;11432;46.924;7.114;2022-08-07T14:16:58;4.20;;;3.00;;
22531;SDS011;11432;46.924;7.114;2022-08-07T14:19:37;5.25;;;2.90;;
22531;SDS011;11432;46.924;7.114;2022-08-07T14:22:14;4.28;;;2.58;;
22531;SDS011;11432;46.924;7.114;2022-08-07T14:24:47;3.83;;;2.60;;
22531;SDS011;11432;46.924;7.114;2022-08-07T14:27:15;3.78;;;2.78;;
22531;SDS011;11432;46.924;7.114;2022-08-07T14:29:51;2.92;;;2.63;;
22531;SDS011;11432;46.924;7.114;2022-08-07T14:32:21;3.60;;;2.83;;
22531;SDS011;11432;46.924;7.114;2022-08-07T14:34:51;3.60;;;2.65;;
22531;SDS011;11432;46.924;7.114;2022-08-07T14:37:18;4.45;;;2.40;;
22531;SDS011;11432;46.924;7.114;2022-08-07T14:39:46;4.10;;;2.90;;
22531;SDS011;11432;46.924;7.114;2022-08-07T14:42:13;3.00;;;2.70;;
22531;SDS011;11432;46.924;7.114;2022-08-07T14:44:46;4.18;;;3.00;;
22531;SDS011;11432;46.924;7.114;2022-08-07T14:47:16;3.28;;;2.60;;
22531;SDS011;11432;46.924;7.114;2022-08-07T14:49:44;3.92;;;2.50;;
22531;SDS011;11432;46.924;7.114;2022-08-07T14:52:10;3.85;;;2.80;;
22531;SDS011;11432;46.924;7.114;2022-08-07T14:54:39;3.53;;;3.00;;
22531;SDS011;11432;46.924;7.114;2022-08-07T14:59:35;2.88;;;2.42;;
22531;SDS011;11432;46.924;7.114;2022-08-07T15:02:10;3.72;;;2.88;;
22531;SDS011;11432;46.924;7.114;2022-08-07T15:04:39;3.72;;;2.65;;
22531;SDS011;11432;46.924;7.114;2022-08-07T15:07:10;3.42;;;2.75;;
22531;SDS011;11432;46.924;7.114;2022-08-07T15:09:41;5.45;;;3.00;;
22531;SDS011;11432;46.924;7.114;2022-08-07T15:12:09;4.35;;;2.85;;
22531;SDS011;11432;46.924;7.114;2022-08-07T15:14:40;3.83;;;2.80;;
22531;SDS011;11432;46.924;7.114;2022-08-07T15:17:14;3.63;;;2.38;;
22531;SDS011;11432;46.924;7.114;2022-08-07T15:19:55;3.83;;;2.33;;
22531;SDS011;11432;46.924;7.114;2022-08-07T15:22:27;2.95;;;2.53;;
22531;SDS011;11432;46.924;7.114;2022-08-07T15:24:55;3.00;;;2.50;;
22531;SDS011;11432;46.924;7.114;2022-08-07T15:27:23;3.15;;;2.25;;
22531;SDS011;11432;46.924;7.114;2022-08-07T15:29:54;3.67;;;2.78;;
22531;SDS011;11432;46.924;7.114;2022-08-07T15:32:24;4.68;;;2.53;;
22531;SDS011;11432;46.924;7.114;2022-08-07T15:34:52;2.90;;;2.33;;
22531;SDS011;11432;46.924;7.114;2022-08-07T15:37:24;4.00;;;2.15;;
22531;SDS011;11432;46.924;7.114;2022-08-07T15:39:53;3.35;;;2.72;;
22531;SDS011;11432;46.924;7.114;2022-08-07T15:45:01;3.28;;;2.67;;
22531;SDS011;11432;46.924;7.114;2022-08-07T15:47:36;4.00;;;3.42;;
22531;SDS011;11432;46.924;7.114;2022-08-07T15:50:07;4.82;;;2.80;;
22531;SDS011;11432;46.924;7.114;2022-08-07T15:52:40;2.70;;;2.00;;
22531;SDS011;11432;46.924;7.114;2022-08-07T15:55:09;3.50;;;2.50;;
22531;SDS011;11432;46.924;7.114;2022-08-07T15:57:38;4.47;;;2.70;;
22531;SDS011;11432;46.924;7.114;2022-08-07T16:00:07;3.85;;;2.60;;
22531;SDS011;11432;46.924;7.114;2022-08-07T16:02:36;3.47;;;2.30;;
22531;SDS011;11432;46.924;7.114;2022-08-07T16:05:07;3.10;;;2.70;;
22531;SDS011;11432;46.924;7.114;2022-08-07T16:07:43;2.97;;;2.22;;
22531;SDS011;11432;46.924;7.114;2022-08-07T16:15:33;3.05;;;2.60;;
22531;SDS011;11432;46.924;7.114;2022-08-07T16:45:09;6.22;;;2.80;;
22531;SDS011;11432;46.924;7.114;2022-08-07T16:56:09;2.50;;;2.22;;
22531;SDS011;11432;46.924;7.114;2022-08-07T16:58:53;3.28;;;2.25;;
22531;SDS011;11432;46.924;7.114;2022-08-07T17:06:46;3.97;;;2.10;;
22531;SDS011;11432;46.924;7.114;2022-08-07T17:09:31;2.88;;;2.13;;
22531;SDS011;11432;46.924;7.114;2022-08-07T17:12:12;4.30;;;2.58;;
22531;SDS011;11432;46.924;7.114;2022-08-07T17:15:00;6.97;;;3.53;;
22531;SDS011;11432;46.924;7.114;2022-08-07T17:20:12;3.35;;;2.63;;
22531;SDS011;11432;46.924;7.114;2022-08-07T17:22:55;3.38;;;2.63;;
22531;SDS011;11432;46.924;7.114;2022-08-07T17:25:26;3.95;;;2.30;;
22531;SDS011;11432;46.924;7.114;2022-08-07T17:33:39;5.25;;;2.20;;
22531;SDS011;11432;46.924;7.114;2022-08-07T17:36:12;3.47;;;2.33;;
22531;SDS011;11432;46.924;7.114;2022-08-07T17:38:49;4.25;;;2.45;;
22531;SDS011;11432;46.924;7.114;2022-08-07T17:44:38;2.58;;;2.25;;
22531;SDS011;11432;46.924;7.114;2022-08-07T17:50:27;3.33;;;2.47;;
22531;SDS011;11432;46.924;7.114;2022-08-07T17:56:37;4.95;;;2.50;;
22531;SDS011;11432;46.924;7.114;2022-08-07T18:01:19;3.88;;;2.50;;
22531;SDS011;11432;46.924;7.114;2022-08-07T18:09:29;2.70;;;2.10;;
22531;SDS011;11432;46.924;7.114;2022-08-07T18:14:44;3.45;;;2.63;;
22531;SDS011;11432;46.924;7.114;2022-08-07T18:17:24;2.85;;;2.30;;
22531;SDS011;11432;46.924;7.114;2022-08-07T18:19:54;3.38;;;2.50;;
22531;SDS011;11432;46.924;7.114;2022-08-07T18:22:26;2.90;;;2.15;;
22531;SDS011;11432;46.924;7.114;2022-08-07T18:24:58;3.85;;;2.47;;
22531;SDS011;11432;46.924;7.114;2022-08-07T18:30:30;2.83;;;2.20;;
22531;SDS011;11432;46.924;7.114;2022-08-07T18:36:27;4.00;;;2.30;;
22531;SDS011;11432;46.924;7.114;2022-08-07T18:44:47;4.25;;;2.63;;
22531;SDS011;11432;46.924;7.114;2022-08-07T19:01:40;3.60;;;2.28;;
22531;SDS011;11432;46.924;7.114;2022-08-07T19:04:15;3.42;;;2.45;;
22531;SDS011;11432;46.924;7.114;2022-08-07T19:06:56;3.20;;;2.42;;
22531;SDS011;11432;46.924;7.114;2022-08-07T19:17:42;3.40;;;2.60;;
22531;SDS011;11432;46.924;7.114;2022-08-07T19:20:16;3.88;;;2.28;;
22531;SDS011;11432;46.924;7.114;2022-08-07T19:25:14;6.55;;;2.22;;
22531;SDS011;11432;46.924;7.114;2022-08-07T19:27:41;3.47;;;2.22;;
22531;SDS011;11432;46.924;7.114;2022-08-07T19:30:12;5.55;;;2.45;;
22531;SDS011;11432;46.924;7.114;2022-08-07T19:32:40;4.90;;;2.67;;
22531;SDS011;11432;46.924;7.114;2022-08-07T19:35:09;3.47;;;1.95;;
22531;SDS011;11432;46.924;7.114;2022-08-07T19:40:05;4.15;;;2.20;;
22531;SDS011;11432;46.924;7.114;2022-08-07T19:42:39;5.87;;;2.57;;
22531;SDS011;11432;46.924;7.114;2022-08-07T19:45:07;2.60;;;2.00;;
22531;SDS011;11432;46.924;7.114;2022-08-07T19:47:38;3.05;;;2.38;;
22531;SDS011;11432;46.924;7.114;2022-08-07T19:50:06;3.38;;;2.50;;
22531;SDS011;11432;46.924;7.114;2022-08-07T19:52:32;4.10;;;2.47;;
22531;SDS011;11432;46.924;7.114;2022-08-07T19:54:58;4.55;;;2.60;;
22531;SDS011;11432;46.924;7.114;2022-08-07T19:57:27;3.70;;;2.70;;
22531;SDS011;11432;46.924;7.114;2022-08-07T20:00:03;3.03;;;2.47;;